MTNO2: Tom Steed Lake

Data processed at Sat Feb 23 2019 22:32


All information presented herein is the property of the government of the United States of America and may be revised or deleted at any time without prior notice.
Dissemination of this information without the expressed written consent of the Public Affairs Office, Tulsa District U.S. Army Corps of Engineers is strictly prohibited.
These data are gathered electronically and, as presented, have not undergone any form of quality control. These data are not guaranteed to be valid or correct.
Go to home page.
Go to station list.
Go to home page.

Downstream station:


Previous Day
Next Day
Current Day
    
SHEF ID:       MTNO2     Tom Steed Lake
STATION TYPE:  RESERVOIR
Flood Pool:  Bottom =  1411.00, Top =  1414.00

               PRECIP ELEVATION   STORAGE    INFLOW   RELEASE   VOLTAGE  BAT-LOAD
                   in        ft     ac-ft       cfs       cfs      volt      volt
              Ccp-Rev   Ccp-Rev   Ccp-Rev  Rev-Regi  Rev-Regi   Ccp-Rev   Ccp-Rev
(US/Central)
02/23 00:00      0.00   1410.98     97198       151         0     12.73     12.49
02/23 01:00      0.00   1410.98     97198       151         0     12.73     12.49
02/23 02:00      0.00   1410.98     97198       151         0     12.65     12.49
02/23 03:00      0.00   1410.98     97198         0         0     12.65     12.41
02/23 04:00      0.01   1410.98     97198         0         0     12.65     12.41
02/23 05:00      0.01   1410.98     97198         0         0     12.65     12.41
02/23 06:00      0.00   1410.98     97198         0         0     12.65     12.41
02/23 07:00      0.00   1410.98     97198         0         0     12.57     12.41
02/23 08:00      0.00   1410.97     97135         0         0     12.81     12.41
02/23 09:00      0.00   1410.98     97198       151         0     13.21     13.37
02/23 10:00      0.00   1410.98     97198       151         0     13.29     12.89
02/23 11:00      0.00   1410.99     97260       151         0     13.37     13.37
02/23 12:00      0.00   1410.99     97260       301         0     13.37     13.53
02/23 13:00      0.00   1410.99     97260       458         0     13.37     13.60
02/23 14:00      0.00   1411.00     97322       308         0     13.92     13.84
02/23 15:00      0.00   1411.01     97387       308         0     13.37     13.21
02/23 16:00      0.00   1411.03     97517       308         0     13.92     13.21
02/23 17:00      0.00   1411.03     97517       157         0     13.92     14.00
02/23 18:00      0.00   1411.04     97582         0         0     13.37     13.21
02/23 19:00      0.00   1411.02     97452         0         0     12.89     12.81
02/23 20:00      0.00   1411.01     97387         0         0     12.81     12.65
02/23 21:00      0.00   1411.01     97387         0         0     12.81     12.57
02/23 22:00      0.00   1411.01     97387      ----      ----     12.73     12.57
02/23 23:00      ----      ----      ----      ----      ----      ----      ----